Alread, AR

1:14 AM CST on December 20, 2014 (GMT -0600)
Clinton | Change Station
CLOSE
Current Station
Airport
Location: Clinton,
Elevation: 515 ft
Nearby Weather Stations

Elev 515 ft 35.60 °N, 92.45 °W | Updated 19 minutes ago

Overcast
Overcast
39 °F
Feels Like 39 °F
N
0
Wind Variable Wind from North

Today
High -- | Low -- °F
--% Chance of Precip.
Yesterday
High -- | Low -- °F
Precip. -- in
7:15 AM 5:00 PM
Waning Crescent, 4% visible
Pressure 30.25 in
Visibility 5.0 miles
Clouds Scattered Clouds 1400 ft
Mostly Cloudy 3300 ft
Dew Point 37 °F
Humidity 93%
Rainfall 0.00 in
Snow Depth Not available.
UV 0 out of 12
Pollen 5.10 out of 12
Air Quality Not available.
Flu Activity Not available.
METAR KCCA 200655Z AUTO 00000KT 5SM BR SCT014 BKN033 04/03 A3025 RMK AO2

More Conditions Fewer Conditions

Pressure 30.25 in
Visibility 5.0 miles
Clouds Scattered Clouds 1400 ft
Mostly Cloudy 3300 ft
Dew Point 37 °F
Humidity 93%
Rainfall 0.00 in
Snow Depth Not available.
UV 0 out of 12
Pollen 5.10 out of 12
Air Quality Not available.
Flu Activity Not available.
METAR KCCA 200655Z AUTO 00000KT 5SM BR SCT014 BKN033 04/03 A3025 RMK AO2

More Conditions Fewer Conditions

10-Day Weather Forecast

Almanac

Astronomy

Dec. 20, 2014 Rise Set
Actual Time
Civil Twilight
Nautical Twilight
Astronomical Twilight
Moon
Length of Visible Light
Length of Day
Tomorrow will be .
, % of the Moon is Illuminated

Today's Extremes

State Highs State Lows

Community

WunderPhotos

Upload Photos

1,779,146 photos uploaded!

WunderBlogs® & News

Nearby

Air Quality

  Air Quality AQ Index Pollutant
Not available.

Snow Depth

Station Depth Elevation

Earthquake Activity

City Distance Mag. Time & Date
Minimum magnitude displayed is 2.5.

Coastal Water Temperatures

Place Temperature

Nearby Weather Stations